sensor_id;sensor_type;location;lat;lon;timestamp;temperature;humidity
66582;SHT31;53438;48.898;2.308;2022-07-22T03:02:35;20.09;68.98
66582;SHT31;53438;48.898;2.308;2022-07-22T03:05:01;19.97;69.22
66582;SHT31;53438;48.898;2.308;2022-07-22T03:07:26;19.97;69.04
66582;SHT31;53438;48.898;2.308;2022-07-22T03:09:52;19.95;69.15
66582;SHT31;53438;48.898;2.308;2022-07-22T03:12:17;19.95;69.22
66582;SHT31;53438;48.898;2.308;2022-07-22T03:14:43;19.82;69.40
66582;SHT31;53438;48.898;2.308;2022-07-22T03:17:08;19.85;69.34
66582;SHT31;53438;48.898;2.308;2022-07-22T03:19:33;19.81;69.51
66582;SHT31;53438;48.898;2.308;2022-07-22T03:21:59;19.79;69.49
66582;SHT31;53438;48.898;2.308;2022-07-22T03:24:24;19.87;69.31
66582;SHT31;53438;48.898;2.308;2022-07-22T03:26:49;19.92;69.10
66582;SHT31;53438;48.898;2.308;2022-07-22T03:29:15;19.87;69.16
66582;SHT31;53438;48.898;2.308;2022-07-22T03:31:40;19.97;68.80
66582;SHT31;53438;48.898;2.308;2022-07-22T03:34:05;19.75;69.23
66582;SHT31;53438;48.898;2.308;2022-07-22T03:36:31;19.73;69.11
66582;SHT31;53438;48.898;2.308;2022-07-22T03:38:56;19.79;69.16
66582;SHT31;53438;48.898;2.308;2022-07-22T03:41:22;19.74;69.33
66582;SHT31;53438;48.898;2.308;2022-07-22T03:43:47;19.74;69.36
66582;SHT31;53438;48.898;2.308;2022-07-22T03:46:13;19.64;69.54
66582;SHT31;53438;48.898;2.308;2022-07-22T03:48:39;19.67;69.61
66582;SHT31;53438;48.898;2.308;2022-07-22T03:51:05;19.87;68.91
66582;SHT31;53438;48.898;2.308;2022-07-22T03:53:31;19.58;69.67
66582;SHT31;53438;48.898;2.308;2022-07-22T03:55:58;19.63;69.68
66582;SHT31;53438;48.898;2.308;2022-07-22T03:58:23;19.45;69.86
66582;SHT31;53438;48.898;2.308;2022-07-22T04:00:49;19.47;70.00
66582;SHT31;53438;48.898;2.308;2022-07-22T04:03:15;19.39;70.29
66582;SHT31;53438;48.898;2.308;2022-07-22T04:05:40;19.45;70.15
66582;SHT31;53438;48.898;2.308;2022-07-22T04:08:06;19.37;70.27
66582;SHT31;53438;48.898;2.308;2022-07-22T04:10:31;19.46;70.15
66582;SHT31;53438;48.898;2.308;2022-07-22T04:12:57;19.43;70.01
66582;SHT31;53438;48.898;2.308;2022-07-22T04:15:22;19.49;70.05
66582;SHT31;53438;48.898;2.308;2022-07-22T04:17:47;19.60;69.71
66582;SHT31;53438;48.898;2.308;2022-07-22T04:20:13;19.68;69.16
66582;SHT31;53438;48.898;2.308;2022-07-22T04:22:38;19.77;68.93
66582;SHT31;53438;48.898;2.308;2022-07-22T04:25:04;19.66;69.30
66582;SHT31;53438;48.898;2.308;2022-07-22T04:27:30;19.45;69.78
66582;SHT31;53438;48.898;2.308;2022-07-22T04:29:56;19.47;69.71
66582;SHT31;53438;48.898;2.308;2022-07-22T04:32:21;19.33;70.22
66582;SHT31;53438;48.898;2.308;2022-07-22T04:34:47;19.40;70.10
66582;SHT31;53438;48.898;2.308;2022-07-22T04:37:12;19.41;69.73
66582;SHT31;53438;48.898;2.308;2022-07-22T04:39:38;19.43;69.66
66582;SHT31;53438;48.898;2.308;2022-07-22T04:42:03;19.43;69.73
66582;SHT31;53438;48.898;2.308;2022-07-22T04:44:28;19.20;70.39
66582;SHT31;53438;48.898;2.308;2022-07-22T04:46:54;19.34;69.93
66582;SHT31;53438;48.898;2.308;2022-07-22T04:49:19;19.31;69.90
66582;SHT31;53438;48.898;2.308;2022-07-22T04:51:44;19.29;70.09
66582;SHT31;53438;48.898;2.308;2022-07-22T04:54:10;19.34;70.10
66582;SHT31;53438;48.898;2.308;2022-07-22T04:56:35;19.36;70.05
66582;SHT31;53438;48.898;2.308;2022-07-22T04:59:00;19.17;70.24
66582;SHT31;53438;48.898;2.308;2022-07-22T05:01:26;19.23;70.48
66582;SHT31;53438;48.898;2.308;2022-07-22T05:03:51;19.37;70.03
66582;SHT31;53438;48.898;2.308;2022-07-22T05:06:17;19.39;69.88
66582;SHT31;53438;48.898;2.308;2022-07-22T05:08:43;19.33;69.74
66582;SHT31;53438;48.898;2.308;2022-07-22T05:11:08;19.13;70.76
66582;SHT31;53438;48.898;2.308;2022-07-22T05:13:34;19.36;70.14
66582;SHT31;53438;48.898;2.308;2022-07-22T05:16:06;19.36;69.91
66582;SHT31;53438;48.898;2.308;2022-07-22T05:18:32;19.39;69.77
66582;SHT31;53438;48.898;2.308;2022-07-22T05:20:57;19.47;69.63
66582;SHT31;53438;48.898;2.308;2022-07-22T05:23:22;19.45;69.60
66582;SHT31;53438;48.898;2.308;2022-07-22T05:25:48;19.49;69.53
66582;SHT31;53438;48.898;2.308;2022-07-22T05:28:13;19.50;69.40
66582;SHT31;53438;48.898;2.308;2022-07-22T05:30:38;19.45;69.57
66582;SHT31;53438;48.898;2.308;2022-07-22T05:33:04;19.60;69.06
66582;SHT31;53438;48.898;2.308;2022-07-22T05:35:29;19.53;69.29
66582;SHT31;53438;48.898;2.308;2022-07-22T05:37:55;19.41;69.74
66582;SHT31;53438;48.898;2.308;2022-07-22T05:40:21;19.40;69.81
66582;SHT31;53438;48.898;2.308;2022-07-22T05:42:46;19.47;69.54
66582;SHT31;53438;48.898;2.308;2022-07-22T05:45:12;19.61;69.21
66582;SHT31;53438;48.898;2.308;2022-07-22T05:47:37;19.71;68.81
66582;SHT31;53438;48.898;2.308;2022-07-22T05:50:03;19.66;68.97
66582;SHT31;53438;48.898;2.308;2022-07-22T05:52:28;19.58;69.06
66582;SHT31;53438;48.898;2.308;2022-07-22T05:54:53;19.68;68.85
66582;SHT31;53438;48.898;2.308;2022-07-22T05:57:19;19.78;68.35
66582;SHT31;53438;48.898;2.308;2022-07-22T05:59:44;19.58;68.91
66582;SHT31;53438;48.898;2.308;2022-07-22T06:02:10;19.45;69.62
66582;SHT31;53438;48.898;2.308;2022-07-22T06:04:35;19.56;69.27
66582;SHT31;53438;48.898;2.308;2022-07-22T06:07:00;19.66;68.93
66582;SHT31;53438;48.898;2.308;2022-07-22T06:09:26;19.67;68.90
66582;SHT31;53438;48.898;2.308;2022-07-22T06:11:51;19.74;68.90
66582;SHT31;53438;48.898;2.308;2022-07-22T06:14:17;19.70;68.89
66582;SHT31;53438;48.898;2.308;2022-07-22T06:16:43;19.64;68.88
66582;SHT31;53438;48.898;2.308;2022-07-22T06:19:08;19.66;69.09
66582;SHT31;53438;48.898;2.308;2022-07-22T06:21:33;19.78;68.97
66582;SHT31;53438;48.898;2.308;2022-07-22T06:23:59;19.75;68.82
66582;SHT31;53438;48.898;2.308;2022-07-22T06:26:24;19.75;68.77
66582;SHT31;53438;48.898;2.308;2022-07-22T06:28:50;19.84;68.51
66582;SHT31;53438;48.898;2.308;2022-07-22T06:31:15;19.89;68.59
66582;SHT31;53438;48.898;2.308;2022-07-22T06:33:42;19.81;68.74
66582;SHT31;53438;48.898;2.308;2022-07-22T06:36:08;19.97;68.46
66582;SHT31;53438;48.898;2.308;2022-07-22T06:38:34;20.08;68.08
66582;SHT31;53438;48.898;2.308;2022-07-22T06:40:59;20.18;67.69
66582;SHT31;53438;48.898;2.308;2022-07-22T06:43:26;19.95;68.22
66582;SHT31;53438;48.898;2.308;2022-07-22T06:45:52;20.02;68.14
66582;SHT31;53438;48.898;2.308;2022-07-22T06:48:17;20.02;68.10
66582;SHT31;53438;48.898;2.308;2022-07-22T06:50:42;20.02;68.21
66582;SHT31;53438;48.898;2.308;2022-07-22T06:53:08;20.15;68.11
66582;SHT31;53438;48.898;2.308;2022-07-22T06:55:33;20.24;67.75
66582;SHT31;53438;48.898;2.308;2022-07-22T06:57:59;20.33;67.76
66582;SHT31;53438;48.898;2.308;2022-07-22T07:00:25;20.36;67.39
66582;SHT31;53438;48.898;2.308;2022-07-22T07:02:50;20.53;67.05
66582;SHT31;53438;48.898;2.308;2022-07-22T07:05:17;20.49;67.17
66582;SHT31;53438;48.898;2.308;2022-07-22T07:07:42;20.66;66.69
66582;SHT31;53438;48.898;2.308;2022-07-22T07:10:08;20.43;67.41
66582;SHT31;53438;48.898;2.308;2022-07-22T07:12:35;20.83;66.31
66582;SHT31;53438;48.898;2.308;2022-07-22T07:15:00;20.98;65.85
66582;SHT31;53438;48.898;2.308;2022-07-22T07:17:26;20.97;66.09
66582;SHT31;53438;48.898;2.308;2022-07-22T07:19:51;21.12;65.52
66582;SHT31;53438;48.898;2.308;2022-07-22T07:22:17;21.08;65.67
66582;SHT31;53438;48.898;2.308;2022-07-22T07:24:42;21.23;65.46
66582;SHT31;53438;48.898;2.308;2022-07-22T07:27:08;21.32;65.27
66582;SHT31;53438;48.898;2.308;2022-07-22T07:29:33;21.35;65.11
66582;SHT31;53438;48.898;2.308;2022-07-22T07:31:58;21.51;64.72
66582;SHT31;53438;48.898;2.308;2022-07-22T07:34:24;21.63;64.39
66582;SHT31;53438;48.898;2.308;2022-07-22T07:36:49;21.73;64.17
66582;SHT31;53438;48.898;2.308;2022-07-22T07:39:15;21.73;64.15
66582;SHT31;53438;48.898;2.308;2022-07-22T07:41:40;21.73;64.32
66582;SHT31;53438;48.898;2.308;2022-07-22T07:44:06;21.66;64.44
66582;SHT31;53438;48.898;2.308;2022-07-22T07:46:31;21.79;64.27
66582;SHT31;53438;48.898;2.308;2022-07-22T07:48:56;21.76;64.29
66582;SHT31;53438;48.898;2.308;2022-07-22T07:51:22;21.78;64.25
66582;SHT31;53438;48.898;2.308;2022-07-22T07:53:47;21.88;64.28
66582;SHT31;53438;48.898;2.308;2022-07-22T07:56:12;22.00;63.86
66582;SHT31;53438;48.898;2.308;2022-07-22T07:58:38;21.95;64.10
66582;SHT31;53438;48.898;2.308;2022-07-22T08:01:04;22.03;64.07
66582;SHT31;53438;48.898;2.308;2022-07-22T08:03:29;22.13;63.78
66582;SHT31;53438;48.898;2.308;2022-07-22T08:05:56;22.30;63.30
66582;SHT31;53438;48.898;2.308;2022-07-22T08:08:23;22.33;63.25
66582;SHT31;53438;48.898;2.308;2022-07-22T08:10:48;22.23;63.46
66582;SHT31;53438;48.898;2.308;2022-07-22T08:13:13;22.18;63.52
66582;SHT31;53438;48.898;2.308;2022-07-22T08:15:39;22.41;63.31
66582;SHT31;53438;48.898;2.308;2022-07-22T08:18:04;22.47;63.07
66582;SHT31;53438;48.898;2.308;2022-07-22T08:20:29;22.65;62.73
66582;SHT31;53438;48.898;2.308;2022-07-22T08:22:55;22.71;62.45
66582;SHT31;53438;48.898;2.308;2022-07-22T08:25:22;22.79;62.52
66582;SHT31;53438;48.898;2.308;2022-07-22T08:27:49;22.60;63.36
66582;SHT31;53438;48.898;2.308;2022-07-22T08:30:16;22.54;63.86
66582;SHT31;53438;48.898;2.308;2022-07-22T08:32:41;22.57;64.36
66582;SHT31;53438;48.898;2.308;2022-07-22T08:35:08;22.65;63.62
66582;SHT31;53438;48.898;2.308;2022-07-22T08:37:34;22.58;63.43
66582;SHT31;53438;48.898;2.308;2022-07-22T08:39:59;22.63;63.59
66582;SHT31;53438;48.898;2.308;2022-07-22T08:42:25;22.69;64.03
66582;SHT31;53438;48.898;2.308;2022-07-22T08:44:52;22.75;64.08
66582;SHT31;53438;48.898;2.308;2022-07-22T08:47:22;22.79;63.20
66582;SHT31;53438;48.898;2.308;2022-07-22T08:49:47;22.74;63.40
66582;SHT31;53438;48.898;2.308;2022-07-22T08:52:13;22.69;63.31
66582;SHT31;53438;48.898;2.308;2022-07-22T08:54:38;22.67;63.49
66582;SHT31;53438;48.898;2.308;2022-07-22T08:57:04;22.79;63.31
66582;SHT31;53438;48.898;2.308;2022-07-22T08:59:29;22.88;63.26
66582;SHT31;53438;48.898;2.308;2022-07-22T09:02:07;22.98;63.26
66582;SHT31;53438;48.898;2.308;2022-07-22T09:05:00;23.08;62.75
66582;SHT31;53438;48.898;2.308;2022-07-22T09:07:30;23.20;62.80
66582;SHT31;53438;48.898;2.308;2022-07-22T09:09:56;23.19;62.77
66582;SHT31;53438;48.898;2.308;2022-07-22T09:12:24;23.33;62.37
66582;SHT31;53438;48.898;2.308;2022-07-22T09:14:53;23.34;62.52
66582;SHT31;53438;48.898;2.308;2022-07-22T09:19:51;23.52;62.03
66582;SHT31;53438;48.898;2.308;2022-07-22T09:22:34;23.73;61.41
66582;SHT31;53438;48.898;2.308;2022-07-22T09:27:47;23.67;61.60
66582;SHT31;53438;48.898;2.308;2022-07-22T09:30:19;23.57;61.41
66582;SHT31;53438;48.898;2.308;2022-07-22T09:32:47;23.59;62.20
66582;SHT31;53438;48.898;2.308;2022-07-22T09:35:13;23.73;61.63
66582;SHT31;53438;48.898;2.308;2022-07-22T09:40:21;23.98;61.25
66582;SHT31;53438;48.898;2.308;2022-07-22T09:42:55;24.12;60.73
66582;SHT31;53438;48.898;2.308;2022-07-22T09:45:23;24.01;60.92
66582;SHT31;53438;48.898;2.308;2022-07-22T09:47:49;24.20;60.60
66582;SHT31;53438;48.898;2.308;2022-07-22T09:50:25;24.17;60.70
66582;SHT31;53438;48.898;2.308;2022-07-22T09:52:52;24.15;60.85
66582;SHT31;53438;48.898;2.308;2022-07-22T09:55:19;24.12;60.87
66582;SHT31;53438;48.898;2.308;2022-07-22T09:57:45;24.15;60.87
66582;SHT31;53438;48.898;2.308;2022-07-22T10:00:13;24.01;60.87
66582;SHT31;53438;48.898;2.308;2022-07-22T10:05:17;24.14;60.83
66582;SHT31;53438;48.898;2.308;2022-07-22T10:07:43;24.26;60.77
66582;SHT31;53438;48.898;2.308;2022-07-22T10:10:11;24.35;60.19
66582;SHT31;53438;48.898;2.308;2022-07-22T10:12:37;24.36;60.19
66582;SHT31;53438;48.898;2.308;2022-07-22T10:15:05;24.25;60.87
66582;SHT31;53438;48.898;2.308;2022-07-22T10:17:31;24.36;60.75
66582;SHT31;53438;48.898;2.308;2022-07-22T10:19:57;24.17;60.91
66582;SHT31;53438;48.898;2.308;2022-07-22T10:25:05;24.29;61.16
66582;SHT31;53438;48.898;2.308;2022-07-22T10:28:04;24.31;60.82
66582;SHT31;53438;48.898;2.308;2022-07-22T10:30:37;24.22;60.96
66582;SHT31;53438;48.898;2.308;2022-07-22T10:33:15;24.24;61.06
66582;SHT31;53438;48.898;2.308;2022-07-22T10:38:08;24.31;61.00
66582;SHT31;53438;48.898;2.308;2022-07-22T10:43:17;24.20;62.17
66582;SHT31;53438;48.898;2.308;2022-07-22T10:45:48;24.26;63.06
66582;SHT31;53438;48.898;2.308;2022-07-22T10:48:17;24.02;63.78
66582;SHT31;53438;48.898;2.308;2022-07-22T10:50:45;23.91;64.72
66582;SHT31;53438;48.898;2.308;2022-07-22T10:53:13;23.81;64.89
66582;SHT31;53438;48.898;2.308;2022-07-22T11:01:03;23.49;66.55
66582;SHT31;53438;48.898;2.308;2022-07-22T11:03:30;23.43;66.54
66582;SHT31;53438;48.898;2.308;2022-07-22T11:05:57;23.53;66.52
66582;SHT31;53438;48.898;2.308;2022-07-22T11:08:37;23.59;66.15
66582;SHT31;53438;48.898;2.308;2022-07-22T11:11:02;23.63;65.55
66582;SHT31;53438;48.898;2.308;2022-07-22T11:13:32;23.73;65.81
66582;SHT31;53438;48.898;2.308;2022-07-22T11:16:21;23.67;65.72
66582;SHT31;53438;48.898;2.308;2022-07-22T11:18:55;23.67;66.11
66582;SHT31;53438;48.898;2.308;2022-07-22T11:21:26;23.71;66.49
66582;SHT31;53438;48.898;2.308;2022-07-22T11:23:54;23.67;65.92
66582;SHT31;53438;48.898;2.308;2022-07-22T11:26:25;23.66;66.14
66582;SHT31;53438;48.898;2.308;2022-07-22T11:28:51;23.57;65.60
66582;SHT31;53438;48.898;2.308;2022-07-22T11:31:18;23.60;65.92
66582;SHT31;53438;48.898;2.308;2022-07-22T11:33:46;23.53;66.46
66582;SHT31;53438;48.898;2.308;2022-07-22T11:36:12;23.57;66.70
66582;SHT31;53438;48.898;2.308;2022-07-22T11:41:05;23.53;65.95
66582;SHT31;53438;48.898;2.308;2022-07-22T11:43:38;23.56;66.11
66582;SHT31;53438;48.898;2.308;2022-07-22T11:46:03;23.64;65.84
66582;SHT31;53438;48.898;2.308;2022-07-22T11:48:29;23.78;65.75
66582;SHT31;53438;48.898;2.308;2022-07-22T11:51:01;23.83;65.20
66582;SHT31;53438;48.898;2.308;2022-07-22T11:53:27;23.87;65.11
66582;SHT31;53438;48.898;2.308;2022-07-22T11:56:00;23.85;65.11
66582;SHT31;53438;48.898;2.308;2022-07-22T11:58:42;23.96;64.77
66582;SHT31;53438;48.898;2.308;2022-07-22T12:01:13;24.02;63.86
66582;SHT31;53438;48.898;2.308;2022-07-22T12:03:42;23.83;64.69
66582;SHT31;53438;48.898;2.308;2022-07-22T12:06:11;23.71;65.10
66582;SHT31;53438;48.898;2.308;2022-07-22T12:08:42;23.80;65.27
66582;SHT31;53438;48.898;2.308;2022-07-22T12:11:09;23.85;64.62
66582;SHT31;53438;48.898;2.308;2022-07-22T12:13:35;23.88;64.96
66582;SHT31;53438;48.898;2.308;2022-07-22T12:16:26;24.05;64.86
66582;SHT31;53438;48.898;2.308;2022-07-22T12:18:54;24.04;65.21
66582;SHT31;53438;48.898;2.308;2022-07-22T12:21:21;24.10;65.32
66582;SHT31;53438;48.898;2.308;2022-07-22T12:23:52;24.04;65.12
66582;SHT31;53438;48.898;2.308;2022-07-22T12:26:18;24.21;65.17
66582;SHT31;53438;48.898;2.308;2022-07-22T12:28:43;24.29;64.74
66582;SHT31;53438;48.898;2.308;2022-07-22T12:31:08;24.22;65.03
66582;SHT31;53438;48.898;2.308;2022-07-22T12:33:34;24.24;64.95
66582;SHT31;53438;48.898;2.308;2022-07-22T12:36:05;24.21;65.02
66582;SHT31;53438;48.898;2.308;2022-07-22T12:38:32;24.15;64.75
66582;SHT31;53438;48.898;2.308;2022-07-22T12:41:23;23.88;65.69
66582;SHT31;53438;48.898;2.308;2022-07-22T12:43:50;23.87;65.48
66582;SHT31;53438;48.898;2.308;2022-07-22T12:46:15;24.04;65.39
66582;SHT31;53438;48.898;2.308;2022-07-22T12:48:54;24.14;65.02
66582;SHT31;53438;48.898;2.308;2022-07-22T12:51:22;24.25;65.20
66582;SHT31;53438;48.898;2.308;2022-07-22T12:53:48;24.25;65.17
66582;SHT31;53438;48.898;2.308;2022-07-22T12:56:13;24.20;65.24
66582;SHT31;53438;48.898;2.308;2022-07-22T12:58:38;23.85;65.62
66582;SHT31;53438;48.898;2.308;2022-07-22T13:01:07;24.04;65.80
66582;SHT31;53438;48.898;2.308;2022-07-22T13:03:33;24.18;65.51
66582;SHT31;53438;48.898;2.308;2022-07-22T13:06:02;24.25;65.12
66582;SHT31;53438;48.898;2.308;2022-07-22T13:08:29;24.32;65.10
66582;SHT31;53438;48.898;2.308;2022-07-22T13:10:54;24.35;64.08
66582;SHT31;53438;48.898;2.308;2022-07-22T13:13:21;24.45;64.27
66582;SHT31;53438;48.898;2.308;2022-07-22T13:15:47;24.33;64.32
66582;SHT31;53438;48.898;2.308;2022-07-22T13:18:12;24.42;64.46
66582;SHT31;53438;48.898;2.308;2022-07-22T13:20:38;24.47;64.17
66582;SHT31;53438;48.898;2.308;2022-07-22T13:23:03;24.51;64.16
66582;SHT31;53438;48.898;2.308;2022-07-22T13:25:29;24.31;64.38
66582;SHT31;53438;48.898;2.308;2022-07-22T13:27:56;24.31;64.38
66582;SHT31;53438;48.898;2.308;2022-07-22T13:30:21;24.24;64.76
66582;SHT31;53438;48.898;2.308;2022-07-22T13:32:47;24.45;64.63
66582;SHT31;53438;48.898;2.308;2022-07-22T13:35:12;24.45;64.24
66582;SHT31;53438;48.898;2.308;2022-07-22T13:37:38;24.43;63.83
66582;SHT31;53438;48.898;2.308;2022-07-22T13:40:04;24.59;63.74
66582;SHT31;53438;48.898;2.308;2022-07-22T13:42:30;24.63;63.63
66582;SHT31;53438;48.898;2.308;2022-07-22T13:44:55;24.75;63.80
66582;SHT31;53438;48.898;2.308;2022-07-22T13:47:21;24.97;63.15
66582;SHT31;53438;48.898;2.308;2022-07-22T13:49:47;25.04;62.73
66582;SHT31;53438;48.898;2.308;2022-07-22T13:52:13;25.13;62.66
66582;SHT31;53438;48.898;2.308;2022-07-22T13:54:39;25.06;62.45
66582;SHT31;53438;48.898;2.308;2022-07-22T13:57:04;25.14;62.43
66582;SHT31;53438;48.898;2.308;2022-07-22T13:59:30;25.24;62.22
66582;SHT31;53438;48.898;2.308;2022-07-22T14:01:57;25.11;62.33
66582;SHT31;53438;48.898;2.308;2022-07-22T14:04:22;24.79;62.78
66582;SHT31;53438;48.898;2.308;2022-07-22T14:06:48;24.96;62.57
66582;SHT31;53438;48.898;2.308;2022-07-22T14:09:13;24.93;62.82
66582;SHT31;53438;48.898;2.308;2022-07-22T14:11:39;25.06;62.57
66582;SHT31;53438;48.898;2.308;2022-07-22T14:14:04;25.16;62.39
66582;SHT31;53438;48.898;2.308;2022-07-22T14:16:31;25.26;61.98
66582;SHT31;53438;48.898;2.308;2022-07-22T14:19:04;24.89;62.67
66582;SHT31;53438;48.898;2.308;2022-07-22T14:21:29;24.96;62.51
66582;SHT31;53438;48.898;2.308;2022-07-22T14:23:55;24.96;62.59
66582;SHT31;53438;48.898;2.308;2022-07-22T14:26:20;24.86;62.81
66582;SHT31;53438;48.898;2.308;2022-07-22T14:28:46;24.87;62.75
66582;SHT31;53438;48.898;2.308;2022-07-22T14:31:11;24.99;62.56
66582;SHT31;53438;48.898;2.308;2022-07-22T14:33:36;25.06;62.37
66582;SHT31;53438;48.898;2.308;2022-07-22T14:36:02;24.97;62.57
66582;SHT31;53438;48.898;2.308;2022-07-22T14:38:27;25.13;62.29
66582;SHT31;53438;48.898;2.308;2022-07-22T14:40:53;25.10;62.10
66582;SHT31;53438;48.898;2.308;2022-07-22T14:43:19;25.16;62.26
66582;SHT31;53438;48.898;2.308;2022-07-22T14:45:44;25.28;61.93
66582;SHT31;53438;48.898;2.308;2022-07-22T14:48:09;25.37;61.91
66582;SHT31;53438;48.898;2.308;2022-07-22T14:50:35;25.41;61.84
66582;SHT31;53438;48.898;2.308;2022-07-22T14:53:00;25.51;61.66
66582;SHT31;53438;48.898;2.308;2022-07-22T14:55:26;25.37;61.84
66582;SHT31;53438;48.898;2.308;2022-07-22T14:57:51;25.35;61.90
66582;SHT31;53438;48.898;2.308;2022-07-22T15:00:17;25.44;61.84
66582;SHT31;53438;48.898;2.308;2022-07-22T15:02:43;25.40;61.98
66582;SHT31;53438;48.898;2.308;2022-07-22T15:05:09;25.31;62.21
66582;SHT31;53438;48.898;2.308;2022-07-22T15:07:34;25.35;62.15
66582;SHT31;53438;48.898;2.308;2022-07-22T15:09:59;25.30;62.10
66582;SHT31;53438;48.898;2.308;2022-07-22T15:12:25;25.60;61.49
66582;SHT31;53438;48.898;2.308;2022-07-22T15:14:50;25.67;61.31
66582;SHT31;53438;48.898;2.308;2022-07-22T15:17:16;25.77;61.17
66582;SHT31;53438;48.898;2.308;2022-07-22T15:19:41;25.64;61.22
66582;SHT31;53438;48.898;2.308;2022-07-22T15:22:08;25.45;61.59
66582;SHT31;53438;48.898;2.308;2022-07-22T15:24:33;25.52;61.47
66582;SHT31;53438;48.898;2.308;2022-07-22T15:26:58;25.69;61.21
66582;SHT31;53438;48.898;2.308;2022-07-22T15:29:24;25.61;61.26
66582;SHT31;53438;48.898;2.308;2022-07-22T15:31:49;25.62;61.19
66582;SHT31;53438;48.898;2.308;2022-07-22T15:34:15;25.61;61.16
66582;SHT31;53438;48.898;2.308;2022-07-22T15:36:41;25.51;61.35
66582;SHT31;53438;48.898;2.308;2022-07-22T15:39:07;25.47;61.62
66582;SHT31;53438;48.898;2.308;2022-07-22T15:41:33;25.57;61.31
66582;SHT31;53438;48.898;2.308;2022-07-22T15:44:03;25.47;61.36
66582;SHT31;53438;48.898;2.308;2022-07-22T15:46:28;25.68;61.26
66582;SHT31;53438;48.898;2.308;2022-07-22T15:48:53;25.82;60.63
66582;SHT31;53438;48.898;2.308;2022-07-22T15:51:19;25.88;60.62
66582;SHT31;53438;48.898;2.308;2022-07-22T15:53:44;25.71;60.95
66582;SHT31;53438;48.898;2.308;2022-07-22T15:56:11;25.77;60.98
66582;SHT31;53438;48.898;2.308;2022-07-22T15:58:36;25.82;60.78
66582;SHT31;53438;48.898;2.308;2022-07-22T16:01:20;26.29;59.75
66582;SHT31;53438;48.898;2.308;2022-07-22T16:03:45;26.37;59.46
66582;SHT31;53438;48.898;2.308;2022-07-22T16:06:12;26.36;59.52
66582;SHT31;53438;48.898;2.308;2022-07-22T16:08:37;26.39;59.56
66582;SHT31;53438;48.898;2.308;2022-07-22T16:11:03;26.43;59.64
66582;SHT31;53438;48.898;2.308;2022-07-22T16:13:28;26.44;59.58
66582;SHT31;53438;48.898;2.308;2022-07-22T16:15:54;26.35;59.61
66582;SHT31;53438;48.898;2.308;2022-07-22T16:18:19;26.40;59.46
66582;SHT31;53438;48.898;2.308;2022-07-22T16:20:45;26.12;60.20
66582;SHT31;53438;48.898;2.308;2022-07-22T16:23:10;25.99;60.30
66582;SHT31;53438;48.898;2.308;2022-07-22T16:25:35;25.93;60.41
66582;SHT31;53438;48.898;2.308;2022-07-22T16:28:01;25.82;60.83
66582;SHT31;53438;48.898;2.308;2022-07-22T16:30:27;25.82;60.92
66582;SHT31;53438;48.898;2.308;2022-07-22T16:32:52;25.65;61.17
66582;SHT31;53438;48.898;2.308;2022-07-22T16:35:18;25.68;61.29
66582;SHT31;53438;48.898;2.308;2022-07-22T16:37:43;25.84;61.03
66582;SHT31;53438;48.898;2.308;2022-07-22T16:40:09;25.74;61.13
66582;SHT31;53438;48.898;2.308;2022-07-22T16:42:35;25.77;61.15
66582;SHT31;53438;48.898;2.308;2022-07-22T16:45:00;25.67;61.43
66582;SHT31;53438;48.898;2.308;2022-07-22T16:47:25;25.69;61.34
66582;SHT31;53438;48.898;2.308;2022-07-22T16:49:52;25.69;61.39
66582;SHT31;53438;48.898;2.308;2022-07-22T16:52:17;25.69;62.42
66582;SHT31;53438;48.898;2.308;2022-07-22T16:54:43;25.67;62.97
66582;SHT31;53438;48.898;2.308;2022-07-22T16:57:08;25.41;62.72
66582;SHT31;53438;48.898;2.308;2022-07-22T16:59:33;25.51;63.47
66582;SHT31;53438;48.898;2.308;2022-07-22T17:02:00;25.35;63.64
66582;SHT31;53438;48.898;2.308;2022-07-22T17:04:26;25.11;63.61
66582;SHT31;53438;48.898;2.308;2022-07-22T17:06:52;24.89;64.22
66582;SHT31;53438;48.898;2.308;2022-07-22T17:09:17;24.94;64.23
66582;SHT31;53438;48.898;2.308;2022-07-22T17:11:42;25.17;65.01
66582;SHT31;53438;48.898;2.308;2022-07-22T17:14:08;25.19;64.79
66582;SHT31;53438;48.898;2.308;2022-07-22T17:16:33;25.19;65.23
66582;SHT31;53438;48.898;2.308;2022-07-22T17:18:58;25.09;64.72
66582;SHT31;53438;48.898;2.308;2022-07-22T17:21:24;25.06;65.36
66582;SHT31;53438;48.898;2.308;2022-07-22T17:23:49;25.03;64.96
66582;SHT31;53438;48.898;2.308;2022-07-22T17:26:22;24.97;65.81
66582;SHT31;53438;48.898;2.308;2022-07-22T17:28:47;25.03;65.51
66582;SHT31;53438;48.898;2.308;2022-07-22T17:31:14;24.89;65.95
66582;SHT31;53438;48.898;2.308;2022-07-22T17:33:40;24.89;64.93
66582;SHT31;53438;48.898;2.308;2022-07-22T17:36:06;25.04;64.01
66582;SHT31;53438;48.898;2.308;2022-07-22T17:38:34;25.00;63.56
66582;SHT31;53438;48.898;2.308;2022-07-22T17:40:59;24.97;63.92
66582;SHT31;53438;48.898;2.308;2022-07-22T17:43:25;24.90;64.55
66582;SHT31;53438;48.898;2.308;2022-07-22T17:45:51;24.90;65.03
66582;SHT31;53438;48.898;2.308;2022-07-22T17:48:16;24.90;65.68
66582;SHT31;53438;48.898;2.308;2022-07-22T17:50:42;24.84;65.60
66582;SHT31;53438;48.898;2.308;2022-07-22T17:53:10;24.91;64.34
66582;SHT31;53438;48.898;2.308;2022-07-22T17:55:36;24.83;64.43
66582;SHT31;53438;48.898;2.308;2022-07-22T17:58:02;24.83;65.05
66582;SHT31;53438;48.898;2.308;2022-07-22T18:00:28;24.83;64.73
66582;SHT31;53438;48.898;2.308;2022-07-22T18:02:56;24.82;64.81
66582;SHT31;53438;48.898;2.308;2022-07-22T18:05:22;24.82;64.71
66582;SHT31;53438;48.898;2.308;2022-07-22T18:07:47;24.80;64.66
66582;SHT31;53438;48.898;2.308;2022-07-22T18:10:13;24.77;64.94
66582;SHT31;53438;48.898;2.308;2022-07-22T18:12:39;24.76;65.42
66582;SHT31;53438;48.898;2.308;2022-07-22T18:15:04;24.83;63.30
66582;SHT31;53438;48.898;2.308;2022-07-22T18:17:30;24.73;63.85
66582;SHT31;53438;48.898;2.308;2022-07-22T18:19:56;24.68;64.09
66582;SHT31;53438;48.898;2.308;2022-07-22T18:22:21;24.65;63.62
66582;SHT31;53438;48.898;2.308;2022-07-22T18:24:47;24.72;63.65
66582;SHT31;53438;48.898;2.308;2022-07-22T18:27:12;24.55;64.31
66582;SHT31;53438;48.898;2.308;2022-07-22T18:29:37;24.28;64.63
66582;SHT31;53438;48.898;2.308;2022-07-22T18:32:03;24.38;65.04
66582;SHT31;53438;48.898;2.308;2022-07-22T18:34:28;24.26;64.95
66582;SHT31;53438;48.898;2.308;2022-07-22T18:36:55;24.18;65.36
66582;SHT31;53438;48.898;2.308;2022-07-22T18:39:21;24.26;67.48
66582;SHT31;53438;48.898;2.308;2022-07-22T18:41:46;23.83;66.93
66582;SHT31;53438;48.898;2.308;2022-07-22T18:44:11;23.90;68.61
66582;SHT31;53438;48.898;2.308;2022-07-22T18:46:37;23.43;69.44
66582;SHT31;53438;48.898;2.308;2022-07-22T18:49:02;23.47;69.73
66582;SHT31;53438;48.898;2.308;2022-07-22T18:51:28;23.49;69.99
66582;SHT31;53438;48.898;2.308;2022-07-22T18:53:53;23.54;70.45